createdAt,value
2018-12-27T00:00:16.795Z,17.50
2018-12-27T00:02:58.249Z,17.50
2018-12-27T00:05:38.263Z,17.50
2018-12-27T00:08:19.782Z,17.50
2018-12-27T00:11:00.331Z,17.40
2018-12-27T00:13:40.911Z,17.40
2018-12-27T00:16:22.030Z,17.30
2018-12-27T00:19:03.382Z,17.20
2018-12-27T00:21:43.990Z,17.20
2018-12-27T00:24:24.782Z,17.10
2018-12-27T00:27:05.436Z,17.10
2018-12-27T00:29:46.921Z,17.10
2018-12-27T00:32:27.890Z,17.00
2018-12-27T00:35:09.472Z,16.90
2018-12-27T00:37:50.375Z,16.90
2018-12-27T00:40:31.724Z,16.80
2018-12-27T00:43:13.428Z,16.80
2018-12-27T00:45:54.744Z,16.70
2018-12-27T00:48:36.379Z,16.70
2018-12-27T00:51:17.022Z,16.70
2018-12-27T00:53:58.526Z,16.70
2018-12-27T00:56:39.847Z,16.60
2018-12-27T00:59:20.617Z,16.60
2018-12-27T01:02:01.159Z,16.50
2018-12-27T01:04:42.438Z,16.50
2018-12-27T01:07:23.752Z,16.50
2018-12-27T01:10:04.687Z,16.50
2018-12-27T01:12:46.117Z,16.40
2018-12-27T01:15:26.674Z,16.40
2018-12-27T01:18:07.450Z,16.30
2018-12-27T01:20:48.379Z,16.30
2018-12-27T01:23:29.975Z,16.30
2018-12-27T01:26:10.803Z,16.30
2018-12-27T01:28:52.068Z,16.20
2018-12-27T01:31:33.671Z,16.20
2018-12-27T01:34:14.871Z,16.20
2018-12-27T01:36:56.423Z,16.20
2018-12-27T01:39:38.003Z,16.10
2018-12-27T01:42:19.254Z,16.10
2018-12-27T01:45:00.831Z,16.10
2018-12-27T01:47:41.526Z,16.00
2018-12-27T01:50:22.120Z,16.00
2018-12-27T01:53:02.967Z,16.00
2018-12-27T01:55:43.639Z,16.00
2018-12-27T01:58:24.415Z,15.90
2018-12-27T02:01:04.907Z,15.90
2018-12-27T02:06:26.509Z,15.80
2018-12-27T02:09:07.554Z,15.80
2018-12-27T02:11:48.206Z,15.80
2018-12-27T02:14:29.226Z,15.80
2018-12-27T02:17:09.845Z,15.80
2018-12-27T02:19:50.849Z,15.80
2018-12-27T02:22:32.235Z,15.80
2018-12-27T02:25:13.357Z,15.80
2018-12-27T02:27:55.019Z,15.70
2018-12-27T02:30:35.747Z,15.70
2018-12-27T02:33:15.431Z,15.70
2018-12-27T02:39:09.590Z,15.60
2018-12-27T02:41:50.982Z,15.60
2018-12-27T02:44:31.680Z,15.60
2018-12-27T02:47:12.564Z,15.60
2018-12-27T02:49:53.302Z,15.60
2018-12-27T02:52:34.551Z,15.60
2018-12-27T02:55:15.474Z,15.50
2018-12-27T02:57:57.474Z,15.50
2018-12-27T03:00:38.924Z,15.50
2018-12-27T03:03:19.591Z,15.50
2018-12-27T03:06:00.983Z,15.50
2018-12-27T03:08:30.669Z,15.50
2018-12-27T03:11:19.198Z,15.50
2018-12-27T03:14:00.160Z,15.50
2018-12-27T03:16:41.158Z,15.50
2018-12-27T03:19:22.599Z,15.50
2018-12-27T03:22:04.032Z,15.40
2018-12-27T03:24:45.584Z,15.40
2018-12-27T03:27:26.918Z,15.40
2018-12-27T03:29:56.626Z,15.40
2018-12-27T03:32:45.152Z,15.30
2018-12-27T03:35:26.643Z,15.20
2018-12-27T03:38:07.419Z,15.20
2018-12-27T03:40:48.182Z,15.30
2018-12-27T03:43:29.553Z,15.30
2018-12-27T03:46:10.341Z,15.30
2018-12-27T03:48:51.796Z,15.30
2018-12-27T03:51:32.700Z,15.20
2018-12-27T03:54:13.488Z,15.20
2018-12-27T03:56:54.071Z,15.20
2018-12-27T03:59:35.451Z,15.20
2018-12-27T04:02:16.760Z,15.20
2018-12-27T04:04:58.150Z,15.20
2018-12-27T04:07:38.734Z,15.10
2018-12-27T04:10:19.349Z,15.10
2018-12-27T04:13:00.007Z,15.20
2018-12-27T04:15:41.115Z,15.10
2018-12-27T04:18:22.502Z,15.10
2018-12-27T04:21:03.648Z,15.10
2018-12-27T04:23:44.742Z,15.10
2018-12-27T04:26:25.515Z,15.10
2018-12-27T04:29:06.363Z,15.10
2018-12-27T04:31:47.673Z,15.00
2018-12-27T04:34:28.439Z,15.00
2018-12-27T04:37:09.770Z,15.00
2018-12-27T04:39:51.170Z,15.00
2018-12-27T04:42:32.592Z,15.00
2018-12-27T04:45:13.321Z,14.90
2018-12-27T04:47:54.077Z,14.90
2018-12-27T04:50:34.987Z,15.00
2018-12-27T04:53:16.314Z,14.90
2018-12-27T04:58:58.300Z,14.90
2018-12-27T05:01:39.821Z,14.90
2018-12-27T05:04:21.236Z,14.90
2018-12-27T05:07:02.940Z,14.90
2018-12-27T05:09:44.113Z,14.90
2018-12-27T05:12:25.567Z,14.80
2018-12-27T05:15:06.390Z,14.80
2018-12-27T05:17:47.237Z,14.80
2018-12-27T05:20:28.393Z,14.80
2018-12-27T05:23:09.223Z,14.80
2018-12-27T05:25:49.890Z,14.80
2018-12-27T05:28:31.108Z,14.80
2018-12-27T05:31:12.502Z,14.70
2018-12-27T05:33:53.855Z,14.80
2018-12-27T05:36:35.376Z,14.80
2018-12-27T05:39:16.273Z,14.70
2018-12-27T05:41:56.986Z,14.80
2018-12-27T05:44:37.818Z,14.70
2018-12-27T05:47:18.426Z,14.70
2018-12-27T05:49:59.089Z,14.70
2018-12-27T05:52:39.950Z,14.70
2018-12-27T05:55:20.848Z,14.70
2018-12-27T05:58:01.507Z,14.70
2018-12-27T06:03:23.231Z,14.60
2018-12-27T06:06:04.465Z,14.60
2018-12-27T06:08:44.983Z,14.60
2018-12-27T06:11:25.657Z,14.60
2018-12-27T06:14:06.132Z,14.60
2018-12-27T06:16:46.634Z,14.60
2018-12-27T06:19:27.392Z,14.60
2018-12-27T06:22:08.071Z,14.50
2018-12-27T06:24:49.458Z,14.60
2018-12-27T06:27:30.186Z,14.60
2018-12-27T06:30:11.117Z,14.60
2018-12-27T06:32:55.636Z,14.60
2018-12-27T06:35:36.545Z,14.50
2018-12-27T06:38:17.448Z,14.50
2018-12-27T06:40:58.234Z,14.50
2018-12-27T06:43:39.608Z,14.60
2018-12-27T06:46:21.144Z,14.50
2018-12-27T06:49:01.774Z,14.50
2018-12-27T06:51:43.027Z,14.50
2018-12-27T06:54:24.474Z,14.50
2018-12-27T06:57:05.234Z,14.50
2018-12-27T06:59:45.767Z,14.50
2018-12-27T07:02:27.344Z,14.40
2018-12-27T07:05:08.286Z,14.40
2018-12-27T07:07:49.454Z,14.40
2018-12-27T07:10:30.980Z,14.50
2018-12-27T07:13:12.323Z,14.50
2018-12-27T07:15:53.139Z,14.40
2018-12-27T07:18:34.644Z,14.40
2018-12-27T07:21:15.508Z,14.40
2018-12-27T07:23:57.055Z,14.40
2018-12-27T07:26:38.409Z,14.40
2018-12-27T07:29:19.588Z,14.40
2018-12-27T07:32:01.027Z,14.40
2018-12-27T07:34:41.680Z,14.40
2018-12-27T07:37:23.447Z,14.40
2018-12-27T07:40:04.937Z,14.40
2018-12-27T07:42:46.158Z,14.40
2018-12-27T07:45:26.987Z,14.40
2018-12-27T07:48:08.484Z,14.50
2018-12-27T07:50:49.933Z,14.30
2018-12-27T07:53:30.720Z,14.40
2018-12-27T07:56:10.349Z,14.40
2018-12-27T07:58:58.775Z,14.30
2018-12-27T08:01:40.128Z,14.40
2018-12-27T08:04:20.830Z,14.30
2018-12-27T08:07:01.620Z,14.40
2018-12-27T08:12:22.927Z,14.30
2018-12-27T08:15:04.481Z,14.30
2018-12-27T08:17:45.199Z,14.30
2018-12-27T08:20:26.402Z,14.30
2018-12-27T08:23:07.810Z,14.30
2018-12-27T08:25:48.469Z,14.20
2018-12-27T08:28:29.059Z,14.20
2018-12-27T08:31:09.895Z,14.30
2018-12-27T08:33:50.822Z,14.50
2018-12-27T08:36:31.439Z,14.80
2018-12-27T08:39:13.008Z,15.10
2018-12-27T08:41:54.551Z,15.50
2018-12-27T08:44:35.746Z,15.80
2018-12-27T08:47:16.418Z,16.10
2018-12-27T08:49:57.166Z,16.40
2018-12-27T08:52:37.767Z,16.70
2018-12-27T08:55:18.895Z,17.00
2018-12-27T08:57:59.674Z,17.40
2018-12-27T09:00:41.025Z,17.50
2018-12-27T09:03:21.639Z,17.50
2018-12-27T09:06:03.000Z,17.60
2018-12-27T09:08:43.836Z,17.80
2018-12-27T09:11:24.399Z,17.90
2018-12-27T09:14:05.133Z,18.00
2018-12-27T09:16:46.356Z,18.10
2018-12-27T09:19:26.950Z,18.30
2018-12-27T09:22:08.290Z,18.40
2018-12-27T09:24:49.207Z,18.50
2018-12-27T09:27:29.916Z,18.50
2018-12-27T09:30:10.502Z,18.60
2018-12-27T09:32:51.478Z,18.70
2018-12-27T09:35:32.866Z,18.80
2018-12-27T09:38:14.131Z,18.90
2018-12-27T09:40:55.574Z,18.90
2018-12-27T09:43:36.135Z,19.00
2018-12-27T09:46:17.150Z,19.00
2018-12-27T09:48:56.705Z,19.10
2018-12-27T09:51:44.860Z,19.20
2018-12-27T09:54:26.119Z,19.30
2018-12-27T09:57:07.307Z,19.30
2018-12-27T09:59:48.186Z,19.50
2018-12-27T10:02:29.576Z,19.60
2018-12-27T10:05:10.295Z,19.80
2018-12-27T10:07:57.335Z,19.90
2018-12-27T10:10:33.617Z,19.60
2018-12-27T10:13:14.264Z,19.50
2018-12-27T10:15:55.190Z,19.40
2018-12-27T10:18:35.906Z,19.40
2018-12-27T10:21:16.927Z,19.80
2018-12-27T10:23:58.056Z,20.10
2018-12-27T10:26:39.557Z,20.30
2018-12-27T10:29:20.786Z,20.40
2018-12-27T10:32:01.561Z,20.40
2018-12-27T10:34:42.936Z,20.50
2018-12-27T10:37:23.862Z,20.70
2018-12-27T10:40:04.766Z,21.00
2018-12-27T10:42:45.455Z,21.20
2018-12-27T10:45:26.210Z,21.10
2018-12-27T10:48:07.722Z,21.30
2018-12-27T10:50:48.399Z,21.60
2018-12-27T10:53:29.783Z,21.80
2018-12-27T10:56:11.238Z,21.80
2018-12-27T10:58:51.998Z,21.80
2018-12-27T11:01:32.745Z,21.50
2018-12-27T11:04:14.241Z,21.60
2018-12-27T11:06:55.687Z,21.60
2018-12-27T11:09:36.370Z,21.60
2018-12-27T11:14:57.393Z,21.50
2018-12-27T11:20:51.219Z,21.50
2018-12-27T11:23:32.623Z,21.50
2018-12-27T11:26:13.427Z,21.50
2018-12-27T11:28:53.993Z,21.50
2018-12-27T11:31:35.451Z,21.50
2018-12-27T11:34:16.555Z,21.50
2018-12-27T11:36:58.119Z,21.60
2018-12-27T11:39:39.769Z,21.60
2018-12-27T11:42:21.222Z,21.70
2018-12-27T11:45:02.176Z,21.70
2018-12-27T11:47:42.918Z,21.60
2018-12-27T11:50:24.108Z,21.80
2018-12-27T11:53:05.287Z,21.80
2018-12-27T11:55:46.224Z,21.80
2018-12-27T11:58:27.655Z,21.80
2018-12-27T12:00:57.118Z,21.90
2018-12-27T12:06:32.467Z,21.80
2018-12-27T12:09:13.907Z,21.90
2018-12-27T12:11:55.243Z,21.90
2018-12-27T12:14:36.274Z,22.00
2018-12-27T12:17:17.782Z,22.00
2018-12-27T12:19:58.764Z,22.00
2018-12-27T12:22:40.216Z,22.00
2018-12-27T12:25:21.079Z,21.90
2018-12-27T12:28:02.519Z,22.00
2018-12-27T12:30:43.718Z,22.00
2018-12-27T12:33:24.772Z,22.10
2018-12-27T12:36:10.661Z,22.10
2018-12-27T12:38:48.495Z,22.00
2018-12-27T12:41:29.530Z,22.10
2018-12-27T12:44:10.254Z,22.10
2018-12-27T12:46:51.140Z,22.00
2018-12-27T12:49:32.316Z,21.90
2018-12-27T12:52:12.994Z,21.90
2018-12-27T12:54:53.679Z,22.00
2018-12-27T12:57:22.966Z,22.00
2018-12-27T13:00:12.018Z,22.00
2018-12-27T13:02:53.306Z,21.90
2018-12-27T13:05:33.999Z,21.80
2018-12-27T13:08:15.563Z,21.70
2018-12-27T13:10:56.914Z,21.60
2018-12-27T13:13:38.359Z,21.50
2018-12-27T13:16:19.153Z,21.60
2018-12-27T13:18:59.891Z,21.70
2018-12-27T13:21:40.614Z,21.70
2018-12-27T13:24:21.402Z,21.60
2018-12-27T13:27:02.075Z,21.60
2018-12-27T13:29:42.760Z,21.60
2018-12-27T13:32:23.594Z,21.60
2018-12-27T13:35:04.203Z,21.50
2018-12-27T13:37:45.266Z,21.50
2018-12-27T13:40:26.659Z,21.50
2018-12-27T13:43:07.645Z,21.50
2018-12-27T13:45:48.402Z,21.40
2018-12-27T13:48:29.863Z,21.40
2018-12-27T13:51:11.217Z,21.40
2018-12-27T13:53:52.003Z,21.50
2018-12-27T13:56:32.672Z,21.40
2018-12-27T13:59:14.014Z,21.40
2018-12-27T14:01:54.639Z,21.40
2018-12-27T14:04:35.303Z,21.50
2018-12-27T14:07:16.818Z,21.50
2018-12-27T14:09:57.439Z,21.50
2018-12-27T14:12:38.445Z,21.60
2018-12-27T14:21:22.612Z,21.80
2018-12-27T14:24:03.255Z,21.50
2018-12-27T14:26:44.581Z,21.50
2018-12-27T14:29:26.144Z,21.50
2018-12-27T14:32:07.570Z,21.40
2018-12-27T14:34:49.119Z,21.30
2018-12-27T14:37:30.555Z,21.30
2018-12-27T14:40:11.931Z,21.30
2018-12-27T14:42:53.187Z,21.30
2018-12-27T14:45:33.903Z,21.30
2018-12-27T14:48:13.486Z,21.30
2018-12-27T14:50:42.486Z,21.30
2018-12-27T14:53:23.758Z,21.30
2018-12-27T14:56:05.170Z,21.30
2018-12-27T14:58:45.720Z,21.30
2018-12-27T15:01:26.451Z,21.30
2018-12-27T15:04:07.817Z,21.30
2018-12-27T15:06:48.857Z,21.30
2018-12-27T15:09:30.155Z,21.30
2018-12-27T15:12:11.375Z,21.20
2018-12-27T15:14:51.974Z,21.10
2018-12-27T15:17:33.192Z,21.00
2018-12-27T15:20:13.799Z,21.10
2018-12-27T15:22:54.467Z,21.00
2018-12-27T15:25:35.183Z,21.00
2018-12-27T15:28:16.191Z,20.90
2018-12-27T15:30:56.693Z,20.80
2018-12-27T15:33:38.115Z,20.80
2018-12-27T15:36:18.854Z,20.80
2018-12-27T15:38:59.435Z,20.80
2018-12-27T15:41:40.279Z,20.80
2018-12-27T15:44:21.053Z,20.70
2018-12-27T15:47:01.798Z,20.80
2018-12-27T15:49:43.119Z,20.80
2018-12-27T15:52:24.258Z,20.70
2018-12-27T15:55:04.967Z,20.70
2018-12-27T15:57:44.940Z,20.70
2018-12-27T16:00:33.158Z,20.70
2018-12-27T16:03:14.079Z,20.70
2018-12-27T16:05:54.729Z,20.60
2018-12-27T16:08:36.083Z,20.60
2018-12-27T16:11:17.079Z,20.70
2018-12-27T16:13:57.927Z,20.70
2018-12-27T16:16:39.232Z,20.60
2018-12-27T16:19:20.806Z,20.60
2018-12-27T16:22:01.532Z,20.70
2018-12-27T16:24:42.993Z,20.60
2018-12-27T16:27:24.639Z,20.60
2018-12-27T16:30:05.910Z,20.50
2018-12-27T16:32:46.610Z,20.50
2018-12-27T16:35:27.469Z,20.50
2018-12-27T16:38:08.943Z,20.50
2018-12-27T16:40:50.354Z,20.50
2018-12-27T16:43:31.602Z,20.40
2018-12-27T16:46:13.151Z,20.40
2018-12-27T16:48:54.249Z,20.40
2018-12-27T16:51:34.934Z,20.30
2018-12-27T16:54:16.103Z,20.40
2018-12-27T16:56:58.899Z,20.30
2018-12-27T16:59:40.068Z,20.30
2018-12-27T17:02:20.655Z,20.20
2018-12-27T17:05:01.539Z,20.10
2018-12-27T17:07:42.929Z,20.20
2018-12-27T17:10:23.867Z,20.30
2018-12-27T17:13:05.362Z,20.20
2018-12-27T17:15:46.087Z,20.20
2018-12-27T17:18:26.938Z,20.10
2018-12-27T17:21:07.627Z,20.10
2018-12-27T17:23:48.485Z,20.10
2018-12-27T17:26:29.227Z,20.10
2018-12-27T17:29:10.027Z,20.10
2018-12-27T17:31:50.649Z,20.00
2018-12-27T17:34:31.418Z,19.90
2018-12-27T17:37:12.306Z,19.80
2018-12-27T17:39:53.584Z,19.70
2018-12-27T17:42:35.031Z,19.70
2018-12-27T17:45:15.633Z,19.70
2018-12-27T17:47:56.246Z,19.70
2018-12-27T17:50:36.211Z,19.70
2018-12-27T17:53:24.772Z,19.60
2018-12-27T17:56:04.386Z,19.60
2018-12-27T17:58:52.751Z,19.50
2018-12-27T18:01:33.578Z,19.40
2018-12-27T18:04:14.207Z,19.40
2018-12-27T18:06:55.454Z,19.30
2018-12-27T18:09:36.379Z,19.30
2018-12-27T18:12:17.257Z,19.30
2018-12-27T18:14:58.464Z,19.30
2018-12-27T18:17:39.139Z,19.30
2018-12-27T18:20:19.695Z,19.20
2018-12-27T18:23:00.747Z,19.20
2018-12-27T18:25:41.756Z,19.20
2018-12-27T18:28:23.284Z,19.30
2018-12-27T18:31:03.836Z,19.20
2018-12-27T18:33:44.455Z,19.20
2018-12-27T18:36:25.965Z,19.10
2018-12-27T18:39:07.199Z,19.10
2018-12-27T18:41:48.862Z,19.10
2018-12-27T18:44:30.279Z,19.20
2018-12-27T18:47:10.939Z,19.20
2018-12-27T18:49:52.750Z,19.20
2018-12-27T18:52:33.778Z,19.10
2018-12-27T18:55:20.100Z,19.10
2018-12-27T18:57:57.372Z,19.20
2018-12-27T19:03:25.569Z,19.10
2018-12-27T19:05:54.646Z,19.10
2018-12-27T19:08:43.017Z,19.10
2018-12-27T19:11:51.375Z,19.10
2018-12-27T19:17:34.179Z,19.20
2018-12-27T19:20:15.014Z,19.20
2018-12-27T19:22:56.418Z,19.10
2018-12-27T19:25:37.113Z,19.10
2018-12-27T19:28:18.685Z,19.20
2018-12-27T19:31:00.079Z,19.30
2018-12-27T19:33:41.035Z,19.20
2018-12-27T19:36:22.562Z,19.10
2018-12-27T19:39:04.677Z,19.10
2018-12-27T19:41:45.627Z,19.10
2018-12-27T19:44:26.703Z,19.20
2018-12-27T19:47:08.039Z,19.20
2018-12-27T19:49:49.261Z,19.20
2018-12-27T19:52:18.598Z,19.10
2018-12-27T19:55:06.838Z,19.10
2018-12-27T19:57:47.738Z,19.20
2018-12-27T20:00:28.970Z,19.30
2018-12-27T20:03:09.784Z,19.20
2018-12-27T20:05:50.790Z,19.20
2018-12-27T20:08:31.702Z,19.10
2018-12-27T20:11:12.346Z,19.20
2018-12-27T20:13:53.135Z,19.20
2018-12-27T20:16:34.459Z,19.20
2018-12-27T20:19:15.975Z,19.20
2018-12-27T20:21:57.519Z,19.20
2018-12-27T20:24:38.374Z,19.10
2018-12-27T20:27:19.635Z,19.20
2018-12-27T20:30:00.879Z,19.20
2018-12-27T20:32:41.750Z,19.20
2018-12-27T20:35:22.456Z,19.20
2018-12-27T20:38:06.785Z,19.00
2018-12-27T20:40:46.388Z,19.10
2018-12-27T20:43:27.466Z,19.20
2018-12-27T20:48:46.879Z,19.10
2018-12-27T20:51:27.591Z,19.00
2018-12-27T20:54:09.075Z,18.90
2018-12-27T20:56:50.634Z,19.10
2018-12-27T20:59:31.823Z,19.20
2018-12-27T21:02:01.458Z,19.10
2018-12-27T21:04:49.665Z,19.00
2018-12-27T21:07:31.271Z,19.00
2018-12-27T21:10:12.064Z,18.90
2018-12-27T21:12:53.095Z,19.00
2018-12-27T21:15:34.552Z,19.00
2018-12-27T21:18:16.107Z,19.00
2018-12-27T21:20:56.763Z,19.00
2018-12-27T21:23:38.415Z,18.90
2018-12-27T21:26:19.724Z,18.80
2018-12-27T21:29:01.103Z,18.70
2018-12-27T21:31:41.992Z,18.70
2018-12-27T21:34:23.492Z,18.80
2018-12-27T21:37:04.317Z,18.80
2018-12-27T21:39:45.166Z,18.80
2018-12-27T21:42:26.264Z,18.70
2018-12-27T21:45:07.162Z,18.60
2018-12-27T21:47:47.907Z,18.70
2018-12-27T21:50:29.123Z,18.80
2018-12-27T21:53:10.047Z,18.80
2018-12-27T21:55:51.282Z,18.70
2018-12-27T21:58:32.193Z,18.70
2018-12-27T22:01:13.662Z,18.70
2018-12-27T22:03:55.126Z,18.70
2018-12-27T22:06:36.127Z,18.80
2018-12-27T22:09:17.180Z,18.70
2018-12-27T22:11:57.840Z,18.70
2018-12-27T22:14:39.238Z,18.60
2018-12-27T22:17:20.010Z,18.50
2018-12-27T22:20:00.863Z,18.40
2018-12-27T22:22:42.343Z,18.40
2018-12-27T22:25:23.240Z,18.40
2018-12-27T22:28:04.708Z,18.30
2018-12-27T22:30:46.285Z,18.30
2018-12-27T22:33:27.510Z,18.20
2018-12-27T22:36:08.778Z,18.20
2018-12-27T22:41:51.217Z,18.10
2018-12-27T22:44:31.478Z,18.00
2018-12-27T22:47:12.732Z,17.90
2018-12-27T22:49:54.223Z,17.90
2018-12-27T22:52:34.946Z,17.80
2018-12-27T22:55:16.252Z,17.70
2018-12-27T22:57:57.231Z,17.60
2018-12-27T23:00:41.118Z,17.60
2018-12-27T23:03:22.439Z,17.50
2018-12-27T23:06:04.101Z,17.50
2018-12-27T23:08:45.362Z,17.40
2018-12-27T23:11:26.013Z,17.30
2018-12-27T23:14:06.718Z,17.40
2018-12-27T23:16:48.222Z,17.40
2018-12-27T23:19:29.096Z,17.30
2018-12-27T23:22:09.716Z,17.30
2018-12-27T23:24:51.218Z,17.30
2018-12-27T23:27:32.715Z,17.30
2018-12-27T23:30:13.330Z,17.20
2018-12-27T23:32:54.627Z,17.20
2018-12-27T23:35:35.787Z,17.20
2018-12-27T23:38:16.802Z,17.20
2018-12-27T23:40:57.706Z,17.20
2018-12-27T23:43:39.257Z,17.10
2018-12-27T23:46:20.844Z,17.10
2018-12-27T23:49:02.288Z,17.10
2018-12-27T23:51:43.694Z,17.10
2018-12-27T23:54:24.916Z,17.00
2018-12-27T23:57:04.475Z,17.00
2018-12-27T23:59:45.517Z,16.90
